createdAt,value
2023-05-05T00:03:45.019Z,9.08
2023-05-05T00:08:46.905Z,9.01
2023-05-05T00:13:48.879Z,8.96
2023-05-05T00:18:50.364Z,8.99
2023-05-05T00:23:52.069Z,8.94
2023-05-05T00:28:53.510Z,8.92
2023-05-05T00:33:55.056Z,8.90
2023-05-05T00:38:56.504Z,8.84
2023-05-05T00:43:57.928Z,8.82
2023-05-05T00:49:00.784Z,8.79
2023-05-05T00:54:02.320Z,8.71
2023-05-05T00:59:03.798Z,8.68
2023-05-05T01:04:05.274Z,8.62
2023-05-05T01:09:24.713Z,8.59
2023-05-05T01:14:39.856Z,8.54
2023-05-05T01:20:08.667Z,8.48
2023-05-05T01:25:44.329Z,8.48
2023-05-05T01:31:10.684Z,8.43
2023-05-05T01:36:22.761Z,8.35
2023-05-05T01:41:47.068Z,8.26
2023-05-05T01:46:51.965Z,8.19
2023-05-05T01:51:55.682Z,8.10
2023-05-05T01:56:58.623Z,8.04
2023-05-05T02:02:02.215Z,7.99
2023-05-05T02:07:05.108Z,7.92
2023-05-05T02:12:08.114Z,7.89
2023-05-05T02:17:11.376Z,7.86
2023-05-05T02:22:12.860Z,7.82
2023-05-05T02:27:17.649Z,7.75
2023-05-05T02:32:34.698Z,7.72
2023-05-05T02:37:38.326Z,7.69
2023-05-05T02:42:42.984Z,7.69
2023-05-05T02:47:46.473Z,7.66
2023-05-05T02:52:48.537Z,7.60
2023-05-05T02:58:06.142Z,7.60
2023-05-05T03:03:22.308Z,7.57
2023-05-05T03:08:52.244Z,7.53
2023-05-05T03:14:15.047Z,7.52
2023-05-05T03:19:20.060Z,7.50
2023-05-05T03:24:27.085Z,7.52
2023-05-05T03:29:36.112Z,7.52
2023-05-05T03:34:39.315Z,7.54
2023-05-05T03:39:40.941Z,7.59
2023-05-05T03:44:44.326Z,7.61
2023-05-05T03:49:46.029Z,7.62
2023-05-05T03:54:47.582Z,7.61
2023-05-05T03:59:49.216Z,7.57
2023-05-05T04:04:50.963Z,7.55
2023-05-05T04:09:52.614Z,7.52
2023-05-05T04:14:54.850Z,7.51
2023-05-05T04:19:56.493Z,7.53
2023-05-05T04:24:58.001Z,7.55
2023-05-05T04:29:59.748Z,7.55
2023-05-05T04:35:01.544Z,7.59
2023-05-05T04:40:03.401Z,7.73
2023-05-05T04:45:08.394Z,7.77
2023-05-05T04:50:10.752Z,8.00
2023-05-05T04:55:13.604Z,8.34
2023-05-05T05:00:15.325Z,8.94
2023-05-05T05:05:16.879Z,9.84
2023-05-05T05:10:18.975Z,11.01
2023-05-05T05:15:21.849Z,10.44
2023-05-05T05:20:23.402Z,9.76
2023-05-05T05:25:25.073Z,9.38
2023-05-05T05:30:27.249Z,9.87
2023-05-05T05:35:29.166Z,12.02
2023-05-05T05:40:30.766Z,12.94
2023-05-05T05:45:32.379Z,13.22
2023-05-05T05:50:34.086Z,14.31
2023-05-05T05:55:35.598Z,14.36
2023-05-05T06:00:37.221Z,14.77
2023-05-05T06:05:42.595Z,13.66
2023-05-05T06:10:44.960Z,11.92
2023-05-05T06:15:50.881Z,13.09
2023-05-05T06:20:52.903Z,12.64
2023-05-05T06:25:57.658Z,12.83
2023-05-05T06:30:59.118Z,13.66
2023-05-05T06:36:00.655Z,14.23
2023-05-05T06:41:02.172Z,14.48
2023-05-05T06:46:03.708Z,14.51
2023-05-05T06:51:05.205Z,12.26
2023-05-05T06:56:07.842Z,11.74
2023-05-05T07:01:09.646Z,11.50
2023-05-05T07:06:11.127Z,11.59
2023-05-05T07:11:12.656Z,11.70
2023-05-05T07:16:14.141Z,11.71
2023-05-05T07:21:15.612Z,11.84
2023-05-05T07:26:17.105Z,11.80
2023-05-05T07:31:18.721Z,11.77
2023-05-05T07:36:20.319Z,11.73
2023-05-05T07:41:21.744Z,11.91
2023-05-05T07:46:23.226Z,12.05
2023-05-05T07:51:24.813Z,12.40
2023-05-05T07:56:26.232Z,12.66
2023-05-05T08:01:27.966Z,12.95
2023-05-05T08:06:30.876Z,13.53
2023-05-05T08:11:32.319Z,14.03
2023-05-05T08:16:33.883Z,15.21
2023-05-05T08:21:35.451Z,14.43
2023-05-05T08:26:36.899Z,14.60
2023-05-05T08:31:38.454Z,15.21
2023-05-05T08:36:39.907Z,14.47
2023-05-05T08:41:41.478Z,14.66
2023-05-05T08:46:43.227Z,14.55
2023-05-05T08:51:46.496Z,14.62
2023-05-05T08:56:50.014Z,15.10
2023-05-05T09:01:53.030Z,14.88
2023-05-05T09:06:58.148Z,14.76
2023-05-05T09:12:00.186Z,15.04
2023-05-05T09:17:03.322Z,14.72
2023-05-05T09:22:04.837Z,14.33
2023-05-05T09:27:21.666Z,13.93
2023-05-05T09:32:23.753Z,13.76
2023-05-05T09:37:31.411Z,13.53
2023-05-05T09:42:32.847Z,13.48
2023-05-05T09:47:37.549Z,13.39
2023-05-05T09:52:39.204Z,13.41
2023-05-05T09:57:40.650Z,13.47
2023-05-05T10:02:42.294Z,13.71
2023-05-05T10:07:46.175Z,13.89
2023-05-05T10:12:49.223Z,14.00
2023-05-05T10:18:06.160Z,14.06
2023-05-05T10:23:14.183Z,14.16
2023-05-05T10:28:23.021Z,14.25
2023-05-05T10:33:33.840Z,14.44
2023-05-05T10:38:35.918Z,14.88
2023-05-05T10:43:37.633Z,15.65
2023-05-05T10:48:54.550Z,15.71
2023-05-05T10:54:05.925Z,15.50
2023-05-05T10:59:38.818Z,15.28
2023-05-05T11:04:40.801Z,15.29
2023-05-05T11:09:55.178Z,15.10
2023-05-05T11:15:27.539Z,15.10
2023-05-05T11:20:35.218Z,15.23
2023-05-05T11:25:37.201Z,15.30
2023-05-05T11:31:18.664Z,15.32
2023-05-05T11:36:37.007Z,15.29
2023-05-05T11:42:10.229Z,15.00
2023-05-05T11:47:12.244Z,14.88
2023-05-05T11:52:15.119Z,14.90
2023-05-05T11:57:17.999Z,15.03
2023-05-05T12:02:20.407Z,15.23
2023-05-05T12:07:24.596Z,15.38
2023-05-05T12:12:39.425Z,15.37
2023-05-05T12:17:42.958Z,15.49
2023-05-05T12:22:44.588Z,15.67
2023-05-05T12:27:52.571Z,15.90
2023-05-05T12:33:01.550Z,15.82
2023-05-05T12:38:03.471Z,15.59
2023-05-05T12:43:04.884Z,15.50
2023-05-05T12:48:22.476Z,15.60
2023-05-05T12:53:25.225Z,15.80
2023-05-05T12:58:26.695Z,16.08
2023-05-05T13:03:28.232Z,16.09
2023-05-05T13:08:43.002Z,16.39
2023-05-05T13:13:44.436Z,16.46
2023-05-05T13:18:49.810Z,16.34
2023-05-05T13:23:51.360Z,16.24
2023-05-05T13:28:52.868Z,16.31
2023-05-05T13:33:54.478Z,16.47
2023-05-05T13:38:55.942Z,16.25
2023-05-05T13:43:57.354Z,16.30
2023-05-05T13:48:58.781Z,16.50
2023-05-05T13:54:02.793Z,16.46
2023-05-05T13:59:04.560Z,16.48
2023-05-05T14:04:06.312Z,16.58
2023-05-05T14:09:07.893Z,16.64
2023-05-05T14:14:09.336Z,16.62
2023-05-05T14:19:10.752Z,16.59
2023-05-05T14:24:12.184Z,16.56
2023-05-05T14:29:13.620Z,16.26
2023-05-05T14:34:15.016Z,16.16
2023-05-05T14:39:16.477Z,16.01
2023-05-05T14:44:17.973Z,15.91
2023-05-05T14:49:19.504Z,15.94
2023-05-05T14:54:27.853Z,15.72
2023-05-05T14:59:30.325Z,15.79
2023-05-05T15:04:31.846Z,15.69
2023-05-05T15:09:33.254Z,15.90
2023-05-05T15:14:34.738Z,15.83
2023-05-05T15:19:36.414Z,15.72
2023-05-05T15:24:37.975Z,15.85
2023-05-05T15:29:39.379Z,15.73
2023-05-05T15:34:40.828Z,15.59
2023-05-05T15:39:42.314Z,15.34
2023-05-05T15:44:43.745Z,15.39
2023-05-05T15:49:45.177Z,15.32
2023-05-05T15:54:46.704Z,15.07
2023-05-05T15:59:51.350Z,14.95
2023-05-05T16:04:52.831Z,14.79
2023-05-05T16:09:54.271Z,14.68
2023-05-05T16:14:55.950Z,14.61
2023-05-05T16:19:57.368Z,14.33
2023-05-05T16:24:58.791Z,14.21
2023-05-05T16:30:00.228Z,14.19
2023-05-05T16:35:01.679Z,14.12
2023-05-05T16:40:03.268Z,13.96
2023-05-05T16:45:05.880Z,13.93
2023-05-05T16:50:07.680Z,13.76
2023-05-05T16:55:09.573Z,13.64
2023-05-05T17:00:11.591Z,13.55
2023-05-05T17:05:13.237Z,13.52
2023-05-05T17:10:14.847Z,13.47
2023-05-05T17:15:16.311Z,13.39
2023-05-05T17:20:17.746Z,13.17
2023-05-05T17:25:19.230Z,13.11
2023-05-05T17:30:20.949Z,12.95
2023-05-05T17:35:22.410Z,12.69
2023-05-05T17:40:24.798Z,12.64
2023-05-05T17:45:26.312Z,12.55
2023-05-05T17:50:27.856Z,12.33
2023-05-05T17:55:29.316Z,12.23
2023-05-05T18:00:30.739Z,11.87
2023-05-05T18:05:32.171Z,11.62
2023-05-05T18:10:33.635Z,11.56
2023-05-05T18:15:35.159Z,11.51
2023-05-05T18:20:36.620Z,11.46
2023-05-05T18:25:38.104Z,11.45
2023-05-05T18:30:39.584Z,11.41
2023-05-05T18:35:41.017Z,11.35
2023-05-05T18:40:42.434Z,11.24
2023-05-05T18:45:43.937Z,11.22
2023-05-05T18:50:45.371Z,11.21
2023-05-05T18:55:46.762Z,11.21
2023-05-05T19:00:48.242Z,11.13
2023-05-05T19:05:49.663Z,11.13
2023-05-05T19:10:51.114Z,11.15
2023-05-05T19:15:54.397Z,11.06
2023-05-05T19:20:55.937Z,10.95
2023-05-05T19:25:57.650Z,10.88
2023-05-05T19:30:59.425Z,10.72
2023-05-05T19:36:01.722Z,10.63
2023-05-05T19:41:03.194Z,10.52
2023-05-05T19:46:04.901Z,10.30
2023-05-05T19:51:06.448Z,10.16
2023-05-05T19:56:08.036Z,10.03
2023-05-05T20:01:09.542Z,9.89
2023-05-05T20:06:11.132Z,9.84
2023-05-05T20:11:16.268Z,9.65
2023-05-05T20:16:18.471Z,9.48
2023-05-05T20:21:19.999Z,9.40
2023-05-05T20:26:21.480Z,9.26
2023-05-05T20:31:22.998Z,9.13
2023-05-05T20:36:24.562Z,9.03
2023-05-05T20:41:26.006Z,8.97
2023-05-05T20:46:27.564Z,8.94
2023-05-05T20:51:29.020Z,8.88
2023-05-05T20:56:30.457Z,8.86
2023-05-05T21:01:31.873Z,8.82
2023-05-05T21:06:33.369Z,8.86
2023-05-05T21:11:34.792Z,8.84
2023-05-05T21:16:36.205Z,8.83
2023-05-05T21:21:37.664Z,8.86
2023-05-05T21:26:43.503Z,8.86
2023-05-05T21:31:44.896Z,8.68
2023-05-05T21:36:46.387Z,8.73
2023-05-05T21:41:47.828Z,8.72
2023-05-05T21:46:49.292Z,8.71
2023-05-05T21:51:50.769Z,8.68
2023-05-05T21:56:52.687Z,8.73
2023-05-05T22:01:54.285Z,8.65
2023-05-05T22:06:55.894Z,8.65
2023-05-05T22:11:57.492Z,8.66
2023-05-05T22:16:59.074Z,8.59
2023-05-05T22:22:00.526Z,8.57
2023-05-05T22:27:01.984Z,8.57
2023-05-05T22:32:03.447Z,8.54
2023-05-05T22:37:04.923Z,8.51
2023-05-05T22:42:06.621Z,8.54
2023-05-05T22:47:08.103Z,8.51
2023-05-05T22:52:09.727Z,8.55
2023-05-05T22:57:11.144Z,8.48
2023-05-05T23:02:12.891Z,8.48
2023-05-05T23:07:14.359Z,8.41
2023-05-05T23:12:16.875Z,8.37
2023-05-05T23:17:18.376Z,8.28
2023-05-05T23:22:19.870Z,8.26
2023-05-05T23:27:21.314Z,8.16
2023-05-05T23:32:22.770Z,8.08
2023-05-05T23:37:24.211Z,8.09
2023-05-05T23:42:25.658Z,8.02
2023-05-05T23:47:27.137Z,8.00
2023-05-05T23:52:28.779Z,7.93
2023-05-05T23:57:30.235Z,7.96
